Flight Track Log - Related Links

Times and Time Zones

All times are in EDT time to prevent confusion due to time zone crossing. See the EJA929 flight status page for this flight to view local times or setup timezone preferences in your user account.

Time Position Orientation Groundspeed Altitude Reporting Facility
EDT Latitude Longitude Course Direction KTS MPH feet Rate Location/Type
Thu 02:31:40 PM 32.1089 -110.9308 334° Northwest 173 199 3,100  Level Albuquerque Center
Thu 02:32:34 PM 32.0722 -110.8853 134° Southeast 215 247 6,400 3,890 Climbing Albuquerque Center
Thu 02:33:11 PM 32.0425 -110.8811 173° South 228 262 9,000 3,796 Climbing Albuquerque Center
Thu 02:34:12 PM 32.0511 -110.9586 277° West 304 350 12,600 2,488 Climbing Albuquerque Center
Thu 02:35:14 PM 32.1453 -110.9914 344° North 347 399 14,100 677 Climbing Albuquerque Center
Thu 02:36:16 PM 32.2722 -111.0067 354° North 408 470 14,000  Descending Albuquerque Center
Thu 02:37:00 PM 32.3985 -111.0848 334° Northwest  Level FlightAware Approximate
Thu 02:37:18 PM 32.4003 -111.0667 338° Northwest 437 503 14,100  Level Albuquerque Center
Thu 02:38:20 PM 32.5092 -111.1261 335° Northwest 435 501 14,100  Level Albuquerque Center
Thu 02:39:22 PM 32.6189 -111.1864 335° Northwest 434 499 14,100 -242 Level Albuquerque Center
Thu 02:40:24 PM 32.7292 -111.2486 335° Northwest 438 504 13,600 -629 Descending Albuquerque Center
Thu 02:41:26 PM 32.8294 -111.3053 335° Northwest 408 470 12,800 -1,317 Descending Albuquerque Center
Thu 02:42:27 PM 32.9122 -111.3492 336° Northwest 329 379 10,900 -1,902 Descending Albuquerque Center
Thu 02:43:29 PM 33.0017 -111.4014 334° Northwest 300 345 8,900 -1,742 Descending Albuquerque Center
Thu 02:44:31 PM 33.0700 -111.4514 328° Northwest 288 331 7,300 -1,742 Descending Albuquerque Center
Thu 02:45:33 PM 33.1414 -111.4972 332° Northwest 289 333 5,300 -1,645 Descending Albuquerque Center
Thu 02:46:35 PM 33.2053 -111.5442 328° Northwest 270 311 3,900 -1,161 Descending Albuquerque Center
Thu 02:47:37 PM 33.2486 -111.5911 318° Northwest 214 246 2,900 -968 Descending Albuquerque Center
Thu 02:48:39 PM 33.2800 -111.6289 315° West 166 191 1,900 -774 Descending Albuquerque Center
Thu 02:49:41 PM 33.3094 -111.6619 317° Northwest 142 163 1,300 -581 Descending Albuquerque Center
Thu 02:51:00 PM 33.3078 -111.6555 North  Level Estimated

Login

Don't have an account? Register now (free) for customized features, flight alerts, and more!